createdAt,value
2023-08-29T00:00:31.681Z,6.10
2023-08-29T00:02:59.776Z,12.00
2023-08-29T00:05:29.128Z,9.63
2023-08-29T00:07:58.602Z,11.33
2023-08-29T00:10:26.797Z,14.00
2023-08-29T00:12:54.717Z,16.53
2023-08-29T00:15:22.538Z,18.30
2023-08-29T00:17:50.669Z,13.10
2023-08-29T00:20:18.546Z,11.17
2023-08-29T00:22:46.603Z,14.73
2023-08-29T00:25:16.090Z,9.43
2023-08-29T00:27:43.869Z,9.57
2023-08-29T00:30:12.236Z,9.47
2023-08-29T00:32:40.378Z,11.70
2023-08-29T00:35:08.272Z,9.43
2023-08-29T00:37:36.313Z,10.37
2023-08-29T00:40:05.095Z,16.13
2023-08-29T00:42:34.414Z,9.47
2023-08-29T00:45:02.354Z,10.83
2023-08-29T00:47:30.622Z,9.87
2023-08-29T00:49:58.480Z,15.50
2023-08-29T00:52:26.670Z,12.57
2023-08-29T00:54:54.744Z,12.30
2023-08-29T00:57:22.818Z,12.77
2023-08-29T00:59:52.617Z,12.00
2023-08-29T01:02:21.672Z,9.50
2023-08-29T01:04:49.387Z,14.70
2023-08-29T01:07:19.022Z,8.37
2023-08-29T01:09:49.343Z,7.77
2023-08-29T01:12:18.346Z,8.07
2023-08-29T01:14:52.372Z,10.27
2023-08-29T01:17:24.684Z,9.93
2023-08-29T01:19:53.801Z,9.70
2023-08-29T01:22:27.845Z,16.70
2023-08-29T01:25:00.323Z,12.60
2023-08-29T01:27:31.901Z,9.33
2023-08-29T01:30:01.840Z,10.73
2023-08-29T01:32:30.584Z,8.10
2023-08-29T01:34:59.463Z,9.00
2023-08-29T01:37:27.432Z,10.10
2023-08-29T01:39:55.175Z,8.33
2023-08-29T01:42:22.927Z,7.70
2023-08-29T01:44:52.581Z,8.93
2023-08-29T01:47:20.386Z,11.77
2023-08-29T01:49:49.976Z,8.20
2023-08-29T01:52:18.089Z,7.83
2023-08-29T01:54:47.626Z,6.77
2023-08-29T01:57:16.267Z,10.83
2023-08-29T01:59:46.000Z,6.63
2023-08-29T02:02:15.787Z,5.80
2023-08-29T02:04:43.826Z,7.47
2023-08-29T02:07:11.831Z,9.60
2023-08-29T02:09:39.627Z,7.30
2023-08-29T02:12:07.706Z,7.93
2023-08-29T02:14:35.807Z,6.67
2023-08-29T02:17:04.714Z,9.07
2023-08-29T02:19:33.881Z,5.53
2023-08-29T02:22:02.141Z,5.03
2023-08-29T02:24:31.505Z,7.60
2023-08-29T02:26:59.554Z,7.30
2023-08-29T02:29:27.525Z,6.60
2023-08-29T02:31:55.432Z,8.07
2023-08-29T02:34:23.187Z,7.27
2023-08-29T02:36:52.749Z,5.53
2023-08-29T02:39:20.673Z,7.13
2023-08-29T02:41:48.795Z,7.00
2023-08-29T02:44:17.026Z,5.90
2023-08-29T02:46:45.789Z,9.83
2023-08-29T02:49:13.800Z,8.63
2023-08-29T02:51:41.716Z,5.60
2023-08-29T02:54:10.912Z,6.20
2023-08-29T02:56:38.586Z,8.13
2023-08-29T02:59:06.866Z,8.63
2023-08-29T03:01:34.759Z,5.00
2023-08-29T03:04:04.061Z,6.77
2023-08-29T03:06:32.206Z,6.00
2023-08-29T03:08:59.922Z,8.00
2023-08-29T03:11:30.372Z,7.37
2023-08-29T03:14:00.177Z,7.77
2023-08-29T03:16:28.205Z,4.97
2023-08-29T03:18:56.498Z,4.60
2023-08-29T03:21:24.835Z,7.20
2023-08-29T03:23:52.683Z,5.77
2023-08-29T03:26:20.443Z,5.70
2023-08-29T03:28:50.520Z,7.93
2023-08-29T03:31:19.052Z,6.60
2023-08-29T03:33:47.021Z,6.03
2023-08-29T03:36:15.409Z,6.03
2023-08-29T03:38:45.063Z,8.40
2023-08-29T03:41:13.232Z,6.13
2023-08-29T03:43:41.057Z,4.10
2023-08-29T03:46:11.908Z,5.40
2023-08-29T03:48:41.705Z,5.30
2023-08-29T03:51:09.671Z,5.47
2023-08-29T03:53:38.448Z,5.67
2023-08-29T03:56:11.053Z,6.23
2023-08-29T03:58:39.194Z,4.77
2023-08-29T04:01:08.798Z,6.13
2023-08-29T04:03:39.576Z,4.37
2023-08-29T04:06:08.029Z,10.17
2023-08-29T04:08:35.769Z,10.07
2023-08-29T04:11:05.604Z,6.43
2023-08-29T04:13:34.435Z,7.00
2023-08-29T04:16:03.007Z,4.67
2023-08-29T04:18:31.655Z,6.63
2023-08-29T04:21:00.730Z,5.00
2023-08-29T04:23:29.137Z,7.13
2023-08-29T04:26:00.932Z,5.60
2023-08-29T04:28:28.818Z,10.30
2023-08-29T04:30:57.107Z,5.37
2023-08-29T04:33:26.694Z,6.77
2023-08-29T04:35:55.737Z,4.90
2023-08-29T04:38:24.911Z,5.37
2023-08-29T04:40:54.649Z,5.73
2023-08-29T04:43:22.590Z,9.97
2023-08-29T04:45:52.097Z,5.70
2023-08-29T04:48:20.202Z,5.50
2023-08-29T04:50:47.994Z,6.87
2023-08-29T04:53:17.512Z,4.30
2023-08-29T04:55:46.668Z,6.70
2023-08-29T04:58:14.864Z,7.60
2023-08-29T05:00:42.881Z,5.30
2023-08-29T05:03:10.859Z,7.47
2023-08-29T05:05:39.135Z,5.97
2023-08-29T05:08:10.261Z,5.57
2023-08-29T05:10:38.165Z,5.47
2023-08-29T05:13:07.483Z,6.70
2023-08-29T05:15:35.658Z,9.17
2023-08-29T05:18:03.692Z,8.03
2023-08-29T05:20:31.549Z,8.37
2023-08-29T05:22:59.562Z,7.47
2023-08-29T05:25:27.320Z,8.20
2023-08-29T05:27:55.083Z,8.97
2023-08-29T05:30:24.387Z,5.53
2023-08-29T05:32:52.245Z,5.90
2023-08-29T05:35:20.334Z,5.63
2023-08-29T05:37:48.426Z,9.53
2023-08-29T05:40:16.481Z,6.20
2023-08-29T05:42:44.197Z,11.90
2023-08-29T05:45:12.637Z,9.80
2023-08-29T05:47:41.719Z,11.17
2023-08-29T05:50:09.817Z,13.13
2023-08-29T05:52:37.897Z,17.57
2023-08-29T05:55:06.110Z,13.00
2023-08-29T05:57:33.874Z,11.47
2023-08-29T06:00:01.888Z,8.23
2023-08-29T06:02:29.705Z,13.90
2023-08-29T06:04:59.135Z,13.10
2023-08-29T06:07:27.383Z,12.30
2023-08-29T06:09:55.145Z,12.27
2023-08-29T06:12:23.204Z,13.90
2023-08-29T06:14:51.206Z,27.30
2023-08-29T06:17:19.630Z,14.63
2023-08-29T06:19:47.432Z,13.80
2023-08-29T06:22:16.821Z,16.47
2023-08-29T06:24:44.675Z,18.07
2023-08-29T06:27:12.713Z,22.80
2023-08-29T06:29:40.421Z,15.30
2023-08-29T06:32:08.250Z,13.70
2023-08-29T06:34:36.355Z,14.77
2023-08-29T06:37:05.170Z,13.00
2023-08-29T06:39:34.270Z,15.03
2023-08-29T06:42:02.175Z,11.67
2023-08-29T06:44:31.633Z,12.20
2023-08-29T06:46:59.544Z,10.00
2023-08-29T06:49:27.851Z,19.97
2023-08-29T06:51:56.095Z,34.57
2023-08-29T06:54:24.264Z,25.00
2023-08-29T06:56:53.643Z,17.93
2023-08-29T06:59:21.504Z,25.63
2023-08-29T07:01:51.461Z,20.63
2023-08-29T07:04:20.895Z,14.97
2023-08-29T07:06:48.670Z,17.23
2023-08-29T07:09:17.286Z,16.47
2023-08-29T07:11:45.046Z,16.33
2023-08-29T07:14:14.686Z,12.30
2023-08-29T07:16:47.949Z,17.70
2023-08-29T07:19:19.393Z,15.73
2023-08-29T07:21:47.913Z,17.10
2023-08-29T07:24:16.055Z,17.87
2023-08-29T07:26:43.764Z,15.47
2023-08-29T07:29:11.562Z,16.70
2023-08-29T07:31:40.693Z,17.67
2023-08-29T07:34:08.551Z,18.53
2023-08-29T07:36:36.353Z,17.27
2023-08-29T07:39:04.886Z,15.83
2023-08-29T07:41:32.732Z,20.20
2023-08-29T07:44:00.514Z,19.17
2023-08-29T07:46:28.282Z,17.30
2023-08-29T07:48:58.335Z,28.20
2023-08-29T07:51:26.497Z,24.83
2023-08-29T07:53:54.525Z,24.60
2023-08-29T07:56:22.795Z,19.13
2023-08-29T07:58:50.797Z,22.90
2023-08-29T08:01:18.994Z,23.97
2023-08-29T08:03:49.012Z,17.30
2023-08-29T08:06:18.530Z,24.80
2023-08-29T08:08:46.967Z,22.23
2023-08-29T08:11:15.222Z,22.40
2023-08-29T08:13:43.080Z,21.43
2023-08-29T08:16:11.058Z,27.27
2023-08-29T08:18:38.995Z,24.63
2023-08-29T08:21:06.714Z,20.43
2023-08-29T08:23:35.805Z,28.83
2023-08-29T08:26:05.452Z,21.80
2023-08-29T08:28:33.243Z,18.47
2023-08-29T08:31:01.053Z,19.80
2023-08-29T08:33:28.955Z,23.83
2023-08-29T08:35:57.714Z,20.00
2023-08-29T08:38:33.975Z,23.47
2023-08-29T08:41:01.971Z,25.30
2023-08-29T08:43:30.701Z,20.97
2023-08-29T08:45:59.747Z,18.43
2023-08-29T08:48:27.653Z,20.23
2023-08-29T08:50:56.291Z,18.60
2023-08-29T08:53:24.240Z,21.30
2023-08-29T08:55:53.349Z,18.80
2023-08-29T08:58:21.525Z,19.40
2023-08-29T09:00:50.085Z,17.83
2023-08-29T09:03:17.888Z,19.03
2023-08-29T09:05:45.843Z,16.17
2023-08-29T09:08:13.952Z,21.00
2023-08-29T09:10:41.844Z,18.70
2023-08-29T09:13:15.922Z,20.10
2023-08-29T09:15:43.914Z,22.23
2023-08-29T09:18:14.731Z,19.17
2023-08-29T09:20:44.281Z,16.10
2023-08-29T09:23:21.601Z,16.07
2023-08-29T09:25:54.138Z,25.17
2023-08-29T09:28:23.644Z,16.20
2023-08-29T09:30:51.543Z,22.83
2023-08-29T09:33:23.224Z,11.90
2023-08-29T09:35:51.289Z,10.30
2023-08-29T09:38:20.124Z,8.90
2023-08-29T09:40:50.413Z,6.63
2023-08-29T09:43:18.767Z,10.97
2023-08-29T09:45:52.331Z,7.20
2023-08-29T09:48:20.381Z,7.70
2023-08-29T09:50:48.540Z,6.57
2023-08-29T09:53:17.513Z,8.27
2023-08-29T09:55:46.028Z,6.23
2023-08-29T09:58:16.086Z,6.73
2023-08-29T10:00:45.691Z,7.50
2023-08-29T10:03:15.146Z,6.57
2023-08-29T10:05:45.340Z,30.73
2023-08-29T10:08:15.948Z,8.10
2023-08-29T10:10:44.381Z,9.10
2023-08-29T10:13:13.046Z,9.13
2023-08-29T10:15:41.870Z,10.17
2023-08-29T10:18:10.164Z,8.17
2023-08-29T10:20:44.632Z,7.10
2023-08-29T10:23:12.739Z,6.17
2023-08-29T10:25:41.160Z,8.30
2023-08-29T10:28:11.222Z,10.67
2023-08-29T10:30:40.482Z,9.50
2023-08-29T10:33:09.167Z,11.37
2023-08-29T10:35:39.496Z,10.43
2023-08-29T10:38:10.564Z,7.47
2023-08-29T10:40:41.533Z,7.80
2023-08-29T10:43:17.723Z,8.70
2023-08-29T10:48:51.014Z,7.97
2023-08-29T10:51:23.721Z,9.17
2023-08-29T10:53:52.485Z,7.77
2023-08-29T10:56:21.597Z,8.73
2023-08-29T10:58:49.900Z,5.60
2023-08-29T11:01:31.718Z,7.03
2023-08-29T11:04:00.454Z,8.50
2023-08-29T11:06:49.782Z,11.73
2023-08-29T11:09:18.331Z,9.10
2023-08-29T11:11:47.025Z,13.20
2023-08-29T11:14:15.042Z,9.03
2023-08-29T11:17:03.020Z,14.80
2023-08-29T11:19:30.941Z,11.63
2023-08-29T11:22:00.370Z,8.40
2023-08-29T11:24:29.124Z,11.03
2023-08-29T11:26:59.333Z,8.70
2023-08-29T11:29:36.637Z,12.87
2023-08-29T11:32:05.011Z,10.40
2023-08-29T11:34:37.957Z,12.67
2023-08-29T11:37:10.064Z,19.87
2023-08-29T11:39:39.551Z,15.10
2023-08-29T11:42:35.220Z,18.03
2023-08-29T11:45:45.601Z,11.20
2023-08-29T11:47:45.000Z,11.40
2023-08-29T11:50:13.218Z,10.07
2023-08-29T11:52:42.527Z,14.33
2023-08-29T11:55:12.214Z,11.13
2023-08-29T11:57:43.856Z,13.47
2023-08-29T12:00:14.128Z,12.30
2023-08-29T12:02:43.007Z,14.93
2023-08-29T12:05:11.670Z,11.93
2023-08-29T12:07:39.442Z,13.00
2023-08-29T12:10:09.938Z,11.90
2023-08-29T12:12:38.643Z,11.57
2023-08-29T12:15:07.777Z,10.67
2023-08-29T12:17:39.846Z,14.83
2023-08-29T12:20:26.843Z,11.70
2023-08-29T12:22:54.856Z,11.23
2023-08-29T12:25:26.090Z,13.93
2023-08-29T12:27:54.118Z,14.90
2023-08-29T12:30:22.405Z,12.00
2023-08-29T12:32:50.673Z,12.30
2023-08-29T12:35:19.020Z,15.63
2023-08-29T12:37:47.359Z,15.70
2023-08-29T12:40:15.808Z,15.07
2023-08-29T12:42:46.088Z,12.00
2023-08-29T12:45:14.882Z,15.13
2023-08-29T12:47:42.650Z,15.30
2023-08-29T12:50:11.687Z,14.00
2023-08-29T12:52:45.561Z,15.40
2023-08-29T12:55:13.580Z,12.50
2023-08-29T12:57:41.675Z,12.60
2023-08-29T13:00:11.679Z,13.10
2023-08-29T13:02:39.444Z,11.27
2023-08-29T13:05:07.705Z,13.87
2023-08-29T13:07:36.419Z,10.20
2023-08-29T13:10:06.273Z,13.23
2023-08-29T13:12:34.641Z,11.80
2023-08-29T13:15:06.789Z,14.07
2023-08-29T13:17:35.922Z,9.07
2023-08-29T13:20:04.077Z,12.83
2023-08-29T13:22:32.281Z,12.30
2023-08-29T13:25:00.419Z,13.03
2023-08-29T13:27:28.302Z,24.90
2023-08-29T13:29:56.224Z,17.20
2023-08-29T13:32:23.936Z,13.17
2023-08-29T13:34:53.623Z,15.83
2023-08-29T13:37:21.962Z,19.90
2023-08-29T13:39:55.610Z,16.50
2023-08-29T13:42:23.927Z,18.73
2023-08-29T13:44:52.166Z,13.27
2023-08-29T13:47:20.315Z,13.80
2023-08-29T13:49:48.252Z,11.37
2023-08-29T13:52:17.522Z,8.47
2023-08-29T13:54:45.894Z,9.23
2023-08-29T13:57:14.497Z,11.90
2023-08-29T13:59:42.193Z,6.40
2023-08-29T14:02:11.612Z,12.17
2023-08-29T14:04:39.776Z,9.37
2023-08-29T14:07:07.475Z,9.10
2023-08-29T14:09:36.494Z,7.60
2023-08-29T14:12:06.023Z,10.97
2023-08-29T14:14:33.777Z,10.93
2023-08-29T14:17:01.522Z,13.40
2023-08-29T14:19:29.918Z,16.30
2023-08-29T14:21:57.651Z,12.00
2023-08-29T14:24:25.748Z,15.70
2023-08-29T14:26:55.059Z,14.83
2023-08-29T14:29:22.916Z,13.83
2023-08-29T14:31:50.660Z,18.93
2023-08-29T14:34:18.527Z,15.37
2023-08-29T14:36:46.260Z,26.97
2023-08-29T14:39:14.605Z,16.70
2023-08-29T14:41:43.027Z,19.93
2023-08-29T14:44:12.272Z,19.97
2023-08-29T14:46:40.103Z,18.40
2023-08-29T14:49:08.518Z,20.10
2023-08-29T14:51:36.317Z,19.77
2023-08-29T14:54:04.665Z,21.97
2023-08-29T14:56:32.900Z,23.57
2023-08-29T14:59:01.500Z,23.53
2023-08-29T15:01:30.772Z,26.73
2023-08-29T15:03:58.976Z,25.23
2023-08-29T15:06:27.801Z,27.43
2023-08-29T15:08:55.589Z,26.00
2023-08-29T15:11:23.530Z,25.20
2023-08-29T15:13:51.544Z,23.83
2023-08-29T15:16:19.447Z,24.30
2023-08-29T15:18:49.181Z,30.60
2023-08-29T15:21:19.556Z,32.20
2023-08-29T15:23:48.062Z,24.60
2023-08-29T15:26:16.106Z,31.07
2023-08-29T15:28:44.880Z,32.60
2023-08-29T15:31:12.660Z,28.07
2023-08-29T15:33:40.994Z,24.70
2023-08-29T15:36:11.014Z,28.53
2023-08-29T15:38:40.642Z,28.30
2023-08-29T15:41:08.340Z,25.97
2023-08-29T15:43:36.218Z,23.40
2023-08-29T15:46:04.674Z,29.50
2023-08-29T15:48:32.716Z,25.90
2023-08-29T15:51:00.621Z,23.63
2023-08-29T15:53:31.959Z,22.50
2023-08-29T15:56:01.725Z,18.63
2023-08-29T15:58:29.694Z,23.40
2023-08-29T16:00:57.496Z,18.57
2023-08-29T16:03:25.293Z,17.10
2023-08-29T16:05:53.104Z,22.43
2023-08-29T16:08:21.594Z,23.90
2023-08-29T16:10:50.760Z,18.87
2023-08-29T16:13:18.732Z,16.40
2023-08-29T16:15:47.157Z,17.47
2023-08-29T16:18:15.009Z,18.30
2023-08-29T16:20:43.332Z,16.60
2023-08-29T16:23:12.235Z,19.57
2023-08-29T16:25:40.811Z,25.47
2023-08-29T16:28:10.053Z,14.50
2023-08-29T16:30:38.407Z,14.73
2023-08-29T16:33:08.123Z,16.07
2023-08-29T16:35:36.492Z,15.17
2023-08-29T16:38:05.990Z,9.67
2023-08-29T16:40:35.239Z,12.90
2023-08-29T16:43:03.148Z,17.13
2023-08-29T16:45:36.067Z,13.40
2023-08-29T16:48:05.338Z,10.70
2023-08-29T16:50:34.716Z,9.00
2023-08-29T16:53:03.787Z,11.43
2023-08-29T16:55:31.844Z,9.57
2023-08-29T16:58:00.502Z,20.57
2023-08-29T17:00:30.108Z,11.10
2023-08-29T17:03:00.294Z,12.87
2023-08-29T17:05:29.921Z,21.20
2023-08-29T17:07:58.364Z,21.00
2023-08-29T17:10:26.714Z,11.17
2023-08-29T17:12:54.894Z,13.10
2023-08-29T17:15:22.998Z,10.80
2023-08-29T17:17:50.866Z,9.30
2023-08-29T17:20:20.304Z,10.93
2023-08-29T17:22:48.090Z,8.93
2023-08-29T17:25:16.181Z,11.00
2023-08-29T17:27:44.669Z,15.33
2023-08-29T17:30:13.283Z,12.93
2023-08-29T17:32:43.369Z,13.53
2023-08-29T17:35:11.536Z,17.37
2023-08-29T17:37:42.066Z,17.73
2023-08-29T17:40:12.047Z,16.70
2023-08-29T17:42:40.383Z,20.10
2023-08-29T17:45:09.473Z,11.80
2023-08-29T17:47:37.882Z,16.50
2023-08-29T17:50:06.613Z,35.97
2023-08-29T17:52:34.782Z,27.07
2023-08-29T17:55:05.771Z,15.60
2023-08-29T17:57:33.765Z,19.63
2023-08-29T18:00:01.452Z,16.23
2023-08-29T18:02:29.889Z,17.73
2023-08-29T18:04:57.726Z,11.50
2023-08-29T18:07:25.645Z,13.30
2023-08-29T18:10:14.574Z,10.23
2023-08-29T18:12:42.739Z,9.83
2023-08-29T18:15:12.712Z,8.30
2023-08-29T18:17:40.823Z,9.03
2023-08-29T18:20:09.431Z,10.07
2023-08-29T18:22:37.784Z,8.87
2023-08-29T18:25:06.152Z,11.87
2023-08-29T18:27:35.544Z,9.10
2023-08-29T18:30:03.858Z,12.87
2023-08-29T18:32:34.310Z,13.17
2023-08-29T18:35:02.261Z,16.73
2023-08-29T18:37:30.361Z,11.13
2023-08-29T18:39:58.910Z,8.53
2023-08-29T18:42:26.743Z,15.87
2023-08-29T18:44:56.156Z,15.90
2023-08-29T18:47:24.791Z,8.10
2023-08-29T18:49:52.652Z,14.27
2023-08-29T18:52:20.519Z,7.17
2023-08-29T18:54:48.541Z,8.73
2023-08-29T18:57:16.497Z,12.03
2023-08-29T18:59:44.728Z,11.17
2023-08-29T19:02:14.278Z,9.90
2023-08-29T19:04:44.006Z,9.20
2023-08-29T19:07:12.383Z,9.83
2023-08-29T19:09:42.909Z,6.83
2023-08-29T19:12:11.214Z,8.13
2023-08-29T19:14:38.948Z,10.70
2023-08-29T19:17:08.798Z,10.23
2023-08-29T19:19:38.206Z,7.63
2023-08-29T19:22:06.911Z,16.10
2023-08-29T19:24:35.762Z,14.30
2023-08-29T19:27:06.685Z,17.13
2023-08-29T19:29:41.482Z,16.93
2023-08-29T19:32:09.294Z,16.10
2023-08-29T19:34:39.702Z,19.67
2023-08-29T19:37:07.816Z,14.23
2023-08-29T19:39:36.152Z,14.00
2023-08-29T19:42:04.456Z,13.43
2023-08-29T19:44:33.536Z,13.63
2023-08-29T19:47:04.790Z,18.07
2023-08-29T19:49:39.973Z,14.03
2023-08-29T19:52:08.111Z,12.17
2023-08-29T19:54:35.946Z,18.20
2023-08-29T19:57:05.070Z,11.80
2023-08-29T19:59:35.356Z,12.80
2023-08-29T20:02:03.533Z,16.10
2023-08-29T20:04:31.598Z,14.10
2023-08-29T20:07:00.938Z,13.10
2023-08-29T20:09:28.835Z,12.40
2023-08-29T20:11:57.253Z,14.60
2023-08-29T20:14:25.131Z,10.17
2023-08-29T20:16:53.736Z,13.77
2023-08-29T20:19:24.243Z,10.00
2023-08-29T20:21:52.248Z,7.70
2023-08-29T20:24:22.114Z,8.37
2023-08-29T20:26:51.489Z,9.97
2023-08-29T20:29:19.292Z,10.37
2023-08-29T20:31:47.649Z,7.33
2023-08-29T20:34:16.922Z,8.17
2023-08-29T20:36:48.754Z,14.47
2023-08-29T20:39:17.565Z,18.30
2023-08-29T20:41:46.689Z,14.50
2023-08-29T20:44:14.806Z,22.70
2023-08-29T20:46:42.817Z,23.07
2023-08-29T20:49:10.676Z,31.07
2023-08-29T20:51:39.246Z,51.40
2023-08-29T20:54:07.951Z,87.73
2023-08-29T20:56:35.897Z,80.07
2023-08-29T20:59:05.120Z,198.60
2023-08-29T21:01:33.342Z,207.20
2023-08-29T21:04:01.126Z,107.80
2023-08-29T21:06:29.957Z,165.63
2023-08-29T21:08:58.079Z,299.10
2023-08-29T21:11:25.825Z,326.80
2023-08-29T21:13:53.633Z,262.30
2023-08-29T21:16:23.235Z,310.47
2023-08-29T21:18:50.988Z,408.97
2023-08-29T21:21:21.733Z,227.80
2023-08-29T21:23:50.550Z,255.07
2023-08-29T21:26:18.318Z,106.13
2023-08-29T21:28:46.341Z,156.60
2023-08-29T21:31:16.323Z,143.57
2023-08-29T21:33:45.654Z,166.53
2023-08-29T21:36:13.629Z,112.23
2023-08-29T21:38:41.685Z,35.47
2023-08-29T21:41:09.411Z,50.77
2023-08-29T21:43:40.116Z,35.23
2023-08-29T21:46:08.638Z,34.87
2023-08-29T21:48:36.466Z,29.10
2023-08-29T21:51:05.603Z,21.23
2023-08-29T21:53:33.419Z,16.93
2023-08-29T21:56:01.197Z,16.33
2023-08-29T21:58:29.021Z,16.43
2023-08-29T22:00:56.942Z,11.07
2023-08-29T22:03:25.572Z,13.47
2023-08-29T22:05:54.016Z,12.60
2023-08-29T22:08:25.102Z,12.00
2023-08-29T22:10:52.984Z,12.40
2023-08-29T22:13:20.962Z,6.13
2023-08-29T22:15:50.693Z,11.00
2023-08-29T22:18:18.862Z,8.00
2023-08-29T22:20:48.164Z,11.73
2023-08-29T22:23:16.239Z,12.10
2023-08-29T22:25:45.499Z,7.70
2023-08-29T22:28:13.285Z,8.90
2023-08-29T22:30:41.377Z,9.23
2023-08-29T22:33:09.742Z,9.47
2023-08-29T22:35:37.789Z,11.33
2023-08-29T22:38:05.712Z,11.70
2023-08-29T22:40:33.580Z,9.53
2023-08-29T22:43:02.639Z,6.03
2023-08-29T22:45:30.859Z,6.03
2023-08-29T22:47:58.684Z,9.60
2023-08-29T22:50:26.520Z,5.67
2023-08-29T22:52:54.449Z,5.80
2023-08-29T22:55:26.022Z,7.57
2023-08-29T22:57:56.417Z,6.80
2023-08-29T23:00:28.400Z,7.60
2023-08-29T23:02:56.490Z,7.87
2023-08-29T23:05:24.864Z,5.87
2023-08-29T23:07:52.946Z,7.53
2023-08-29T23:10:20.841Z,9.13
2023-08-29T23:12:48.961Z,6.90
2023-08-29T23:15:17.246Z,13.47
2023-08-29T23:17:47.254Z,10.57
2023-08-29T23:20:15.378Z,17.37
2023-08-29T23:22:43.085Z,7.33
2023-08-29T23:25:13.366Z,8.80
2023-08-29T23:27:41.759Z,9.23
2023-08-29T23:30:11.581Z,8.40
2023-08-29T23:32:40.791Z,5.93
2023-08-29T23:35:13.131Z,8.50
2023-08-29T23:38:03.728Z,7.87
2023-08-29T23:40:31.908Z,13.60
2023-08-29T23:42:59.689Z,8.13
2023-08-29T23:45:29.478Z,8.27
2023-08-29T23:47:56.682Z,7.43
2023-08-29T23:50:26.354Z,8.07
2023-08-29T23:52:54.479Z,8.20
2023-08-29T23:55:22.159Z,10.37
2023-08-29T23:57:49.183Z,11.20
